createdAt,value
2023-02-26T00:00:53.130Z,95.0
2023-02-26T00:09:20.379Z,95.0
2023-02-26T00:23:21.285Z,95.0
2023-02-26T00:31:56.799Z,95.0
2023-02-26T00:38:46.367Z,96.0
2023-02-26T00:53:37.952Z,92.0
2023-02-26T00:58:15.739Z,92.0
2023-02-26T01:12:15.797Z,85.0
2023-02-26T01:18:54.381Z,87.0
2023-02-26T01:31:14.085Z,86.0
2023-02-26T01:41:39.578Z,87.0
2023-02-26T01:49:11.923Z,88.0
2023-02-26T01:56:16.371Z,88.0
2023-02-26T02:09:46.954Z,88.0
2023-02-26T02:23:57.582Z,90.0
2023-02-26T02:36:18.122Z,90.0
2023-02-26T02:48:44.583Z,90.0
2023-02-26T02:59:26.902Z,90.0
2023-02-26T03:10:32.982Z,91.0
2023-02-26T03:21:27.927Z,91.0
2023-02-26T03:31:24.566Z,92.0
2023-02-26T03:45:24.456Z,92.0
2023-02-26T03:59:24.502Z,92.0
2023-02-26T04:03:55.020Z,92.0
2023-02-26T04:12:27.072Z,92.0
2023-02-26T04:28:16.362Z,93.0
2023-02-26T04:33:38.796Z,93.0
2023-02-26T04:53:37.876Z,93.0
2023-02-26T05:00:42.153Z,94.0
2023-02-26T05:11:32.415Z,93.0
2023-02-26T05:18:25.327Z,94.0
2023-02-26T05:37:55.407Z,93.0
2023-02-26T05:45:58.846Z,93.0
2023-02-26T05:59:58.915Z,93.0
2023-02-26T06:13:58.928Z,93.0
2023-02-26T06:27:59.245Z,93.0
2023-02-26T06:41:59.926Z,92.0
2023-02-26T06:47:23.408Z,92.0
2023-02-26T07:01:43.683Z,92.0
2023-02-26T07:09:54.962Z,90.0
2023-02-26T07:24:55.063Z,86.0
2023-02-26T07:36:44.597Z,84.0
2023-02-26T07:41:02.871Z,83.0
2023-02-26T07:58:49.643Z,77.0
2023-02-26T08:06:29.353Z,76.0
2023-02-26T08:24:25.513Z,71.0
2023-02-26T08:39:25.477Z,72.0
2023-02-26T09:00:46.431Z,72.0
2023-02-26T09:15:46.364Z,67.0
2023-02-26T09:24:44.910Z,67.0
2023-02-26T16:02:45.044Z,53.0
2023-02-26T16:17:45.098Z,54.0
2023-02-26T16:32:45.078Z,56.0
2023-02-26T16:47:45.135Z,57.0
2023-02-26T17:03:47.597Z,58.0
2023-02-26T17:18:45.254Z,61.0
2023-02-26T17:32:45.307Z,64.0
2023-02-26T17:46:45.259Z,58.0
2023-02-26T18:00:45.254Z,58.0
2023-02-26T18:14:45.294Z,61.0
2023-02-26T18:28:45.287Z,62.0
2023-02-26T18:44:07.805Z,67.0
2023-02-26T19:00:33.672Z,70.0
2023-02-26T19:08:46.396Z,67.0
2023-02-26T19:26:05.818Z,67.0
2023-02-26T19:35:12.623Z,71.0
2023-02-26T19:44:30.206Z,72.0
2023-02-26T19:57:41.936Z,63.0
2023-02-26T20:05:30.148Z,65.0
2023-02-26T20:18:58.633Z,63.0
2023-02-26T20:30:12.583Z,59.0
2023-02-26T20:43:54.059Z,56.0
2023-02-26T20:48:06.105Z,55.0
2023-02-26T20:53:48.217Z,55.0
2023-02-26T21:02:21.269Z,55.0
2023-02-26T21:16:17.792Z,55.0
2023-02-26T21:21:20.393Z,56.0
2023-02-26T21:37:38.585Z,60.0
2023-02-26T21:40:36.132Z,60.0
2023-02-26T21:59:13.458Z,66.0
2023-02-26T22:09:13.089Z,66.0
2023-02-26T22:13:59.629Z,66.0
2023-02-26T22:29:26.208Z,60.0
2023-02-26T22:38:55.515Z,60.0
2023-02-26T22:50:57.610Z,60.0
2023-02-26T23:06:49.736Z,61.0
2023-02-26T23:19:50.422Z,67.0
2023-02-26T23:27:03.918Z,68.0
2023-02-26T23:37:53.292Z,63.0
2023-02-26T23:45:30.425Z,61.0
2023-02-26T23:51:08.091Z,60.0
